createdAt,value
2019-01-10T00:00:07.364Z,2.61
2019-01-10T00:02:37.729Z,2.63
2019-01-10T00:05:09.565Z,2.73
2019-01-10T00:07:39.868Z,2.79
2019-01-10T00:10:13.783Z,2.76
2019-01-10T00:12:43.714Z,2.83
2019-01-10T00:15:16.606Z,2.88
2019-01-10T00:17:47.130Z,2.64
2019-01-10T00:20:17.980Z,2.60
2019-01-10T00:22:49.787Z,2.69
2019-01-10T00:25:20.469Z,2.73
2019-01-10T00:27:50.746Z,2.79
2019-01-10T00:30:21.034Z,2.75
2019-01-10T00:32:51.753Z,2.73
2019-01-10T00:35:23.711Z,2.76
2019-01-10T00:37:54.297Z,2.63
2019-01-10T00:40:24.767Z,2.39
2019-01-10T00:42:55.783Z,2.30
2019-01-10T00:45:26.418Z,2.27
2019-01-10T00:47:56.820Z,2.37
2019-01-10T00:50:27.409Z,2.38
2019-01-10T00:52:57.785Z,2.45
2019-01-10T00:55:28.447Z,2.44
2019-01-10T00:57:58.749Z,2.41
2019-01-10T01:00:29.577Z,2.34
2019-01-10T01:02:59.939Z,2.34
2019-01-10T01:05:30.509Z,2.22
2019-01-10T01:08:00.810Z,2.15
2019-01-10T01:10:31.471Z,2.21
2019-01-10T01:13:01.829Z,2.23
2019-01-10T01:15:32.667Z,2.05
2019-01-10T01:18:03.415Z,2.16
2019-01-10T01:20:33.678Z,2.17
2019-01-10T01:23:04.295Z,2.06
2019-01-10T01:25:34.643Z,2.05
2019-01-10T01:28:04.838Z,2.09
2019-01-10T01:30:35.747Z,2.00
2019-01-10T01:33:06.432Z,2.03
2019-01-10T01:35:36.727Z,2.07
2019-01-10T01:38:07.929Z,2.05
2019-01-10T01:40:38.516Z,2.03
2019-01-10T01:43:08.804Z,2.07
2019-01-10T01:45:39.429Z,2.11
2019-01-10T01:48:09.882Z,2.12
2019-01-10T01:50:40.448Z,2.02
2019-01-10T01:53:10.763Z,2.05
2019-01-10T01:55:41.434Z,2.10
2019-01-10T01:58:12.762Z,2.14
2019-01-10T02:00:43.650Z,2.19
2019-01-10T02:03:14.254Z,2.25
2019-01-10T02:05:44.550Z,2.23
2019-01-10T02:08:14.905Z,2.27
2019-01-10T02:10:45.554Z,2.30
2019-01-10T02:13:16.847Z,2.24
2019-01-10T02:15:47.750Z,1.95
2019-01-10T02:18:18.812Z,1.89
2019-01-10T02:20:49.457Z,1.97
2019-01-10T02:23:19.800Z,2.01
2019-01-10T02:25:50.412Z,2.07
2019-01-10T02:28:20.803Z,2.11
2019-01-10T02:30:51.366Z,1.86
2019-01-10T02:33:21.678Z,1.86
2019-01-10T02:35:52.258Z,1.66
2019-01-10T02:38:22.732Z,1.66
2019-01-10T02:40:53.317Z,1.62
2019-01-10T02:43:26.623Z,1.66
2019-01-10T02:45:55.750Z,1.61
2019-01-10T02:48:32.418Z,1.47
2019-01-10T02:51:02.725Z,1.44
2019-01-10T02:53:33.398Z,1.47
2019-01-10T02:56:03.774Z,1.60
2019-01-10T02:58:34.368Z,1.38
2019-01-10T03:01:04.809Z,1.27
2019-01-10T03:03:35.444Z,1.41
2019-01-10T03:06:05.851Z,1.23
2019-01-10T03:08:36.729Z,1.20
2019-01-10T03:11:07.552Z,1.32
2019-01-10T03:13:37.878Z,1.29
2019-01-10T03:16:08.561Z,1.19
2019-01-10T03:18:38.878Z,1.18
2019-01-10T03:21:09.468Z,1.04
2019-01-10T03:23:39.848Z,1.10
2019-01-10T03:26:10.469Z,1.08
2019-01-10T03:28:40.799Z,1.08
2019-01-10T03:31:11.505Z,1.22
2019-01-10T03:33:41.799Z,1.27
2019-01-10T03:36:12.857Z,1.36
2019-01-10T03:38:43.550Z,1.46
2019-01-10T03:41:13.821Z,1.26
2019-01-10T03:43:47.306Z,1.28
2019-01-10T03:46:16.798Z,1.02
2019-01-10T03:48:47.389Z,1.03
2019-01-10T03:51:17.744Z,1.11
2019-01-10T03:53:48.430Z,1.19
2019-01-10T03:56:18.937Z,1.18
2019-01-10T03:58:49.519Z,1.22
2019-01-10T04:01:19.901Z,1.25
2019-01-10T04:03:50.420Z,1.22
2019-01-10T04:06:20.790Z,1.27
2019-01-10T04:08:51.629Z,1.16
2019-01-10T04:11:21.934Z,1.30
2019-01-10T04:13:57.512Z,1.32
2019-01-10T04:16:24.905Z,1.26
2019-01-10T04:18:55.569Z,1.34
2019-01-10T04:21:25.942Z,1.38
2019-01-10T04:23:56.530Z,1.47
2019-01-10T04:26:26.846Z,1.47
2019-01-10T04:28:57.487Z,1.57
2019-01-10T04:31:27.975Z,1.48
2019-01-10T04:33:58.417Z,1.44
2019-01-10T04:36:30.184Z,1.51
2019-01-10T04:39:00.774Z,1.56
2019-01-10T04:41:31.311Z,1.60
2019-01-10T04:44:06.933Z,1.63
2019-01-10T04:46:34.064Z,1.59
2019-01-10T04:49:04.740Z,1.53
2019-01-10T04:51:35.366Z,1.44
2019-01-10T04:54:06.034Z,1.47
2019-01-10T04:56:36.489Z,1.51
2019-01-10T04:59:06.676Z,1.53
2019-01-10T05:01:37.272Z,1.53
2019-01-10T05:04:07.640Z,1.51
2019-01-10T05:06:37.957Z,1.50
2019-01-10T05:09:09.638Z,1.45
2019-01-10T05:11:40.193Z,1.37
2019-01-10T05:14:16.465Z,1.34
2019-01-10T05:16:42.613Z,1.41
2019-01-10T05:19:12.897Z,1.40
2019-01-10T05:21:43.452Z,1.40
2019-01-10T05:24:16.078Z,1.11
2019-01-10T05:26:46.731Z,1.13
2019-01-10T05:29:17.340Z,1.14
2019-01-10T05:31:47.889Z,1.11
2019-01-10T05:34:18.513Z,1.03
2019-01-10T05:36:48.804Z,0.94
2019-01-10T05:39:19.431Z,1.00
2019-01-10T05:41:49.683Z,1.00
2019-01-10T05:44:26.537Z,1.02
2019-01-10T05:46:52.670Z,1.00
2019-01-10T05:49:23.269Z,1.03
2019-01-10T05:51:53.814Z,1.07
2019-01-10T05:54:24.540Z,1.16
2019-01-10T05:56:54.743Z,1.21
2019-01-10T05:59:25.382Z,1.28
2019-01-10T06:01:55.861Z,1.32
2019-01-10T06:04:26.472Z,1.33
2019-01-10T06:06:56.751Z,1.31
2019-01-10T06:09:27.307Z,1.35
2019-01-10T06:11:57.729Z,1.35
2019-01-10T06:14:35.566Z,1.42
2019-01-10T06:17:00.569Z,1.46
2019-01-10T06:19:30.912Z,1.50
2019-01-10T06:22:01.520Z,1.42
2019-01-10T06:24:31.697Z,1.49
2019-01-10T06:27:01.960Z,1.48
2019-01-10T06:29:32.513Z,1.52
2019-01-10T06:32:02.926Z,1.57
2019-01-10T06:34:33.490Z,1.52
2019-01-10T06:37:03.895Z,1.55
2019-01-10T06:39:34.504Z,1.53
2019-01-10T06:42:04.818Z,1.43
2019-01-10T06:44:44.358Z,1.43
2019-01-10T06:47:07.900Z,1.46
2019-01-10T06:49:38.361Z,1.43
2019-01-10T06:52:08.558Z,1.46
2019-01-10T06:54:39.001Z,1.48
2019-01-10T06:57:09.513Z,1.47
2019-01-10T06:59:39.814Z,1.51
2019-01-10T07:02:10.495Z,1.59
2019-01-10T07:04:40.713Z,1.63
2019-01-10T07:07:11.327Z,1.69
2019-01-10T07:09:41.998Z,1.73
2019-01-10T07:12:12.447Z,1.74
2019-01-10T07:14:43.100Z,1.87
2019-01-10T07:17:15.865Z,1.90
2019-01-10T07:19:49.007Z,1.98
2019-01-10T07:22:20.431Z,1.98
2019-01-10T07:24:55.495Z,1.98
2019-01-10T07:27:25.803Z,2.01
2019-01-10T07:29:59.584Z,2.02
2019-01-10T07:32:29.960Z,2.03
2019-01-10T07:35:05.477Z,2.04
2019-01-10T07:37:35.773Z,2.06
2019-01-10T07:40:12.638Z,2.09
2019-01-10T07:42:42.935Z,2.08
2019-01-10T07:45:24.930Z,2.03
2019-01-10T07:47:55.724Z,2.05
2019-01-10T07:50:37.284Z,2.08
2019-01-10T07:53:10.269Z,2.08
2019-01-10T07:55:40.987Z,2.08
2019-01-10T07:58:11.487Z,2.11
2019-01-10T08:00:41.851Z,2.12
2019-01-10T08:03:12.407Z,2.15
2019-01-10T08:05:42.736Z,2.16
2019-01-10T08:08:14.397Z,2.17
2019-01-10T08:10:44.821Z,2.18
2019-01-10T08:13:15.433Z,2.18
2019-01-10T08:15:46.164Z,2.19
2019-01-10T08:18:16.520Z,2.21
2019-01-10T08:20:46.818Z,2.21
2019-01-10T08:23:17.600Z,2.24
2019-01-10T08:25:47.938Z,2.25
2019-01-10T08:28:18.509Z,2.26
2019-01-10T08:30:48.891Z,2.27
2019-01-10T08:33:19.388Z,2.29
2019-01-10T08:35:49.690Z,2.31
2019-01-10T08:38:21.905Z,2.28
2019-01-10T08:40:52.481Z,2.29
2019-01-10T08:43:22.742Z,2.27
2019-01-10T08:45:53.380Z,2.28
2019-01-10T08:48:23.911Z,2.29
2019-01-10T08:50:54.420Z,2.31
2019-01-10T08:53:24.678Z,2.33
2019-01-10T08:55:55.288Z,2.33
2019-01-10T08:58:25.767Z,2.33
2019-01-10T09:00:56.754Z,2.34
2019-01-10T09:03:27.312Z,2.38
2019-01-10T09:05:57.632Z,2.39
2019-01-10T09:08:27.969Z,2.41
2019-01-10T09:10:58.548Z,2.43
2019-01-10T09:13:28.837Z,2.45
2019-01-10T09:15:59.445Z,2.45
2019-01-10T09:18:29.800Z,2.46
2019-01-10T09:21:04.458Z,2.47
2019-01-10T09:23:32.629Z,2.47
2019-01-10T09:26:02.637Z,2.47
2019-01-10T09:28:32.696Z,2.43
2019-01-10T09:31:03.406Z,2.41
2019-01-10T09:33:33.504Z,2.22
2019-01-10T09:36:03.608Z,2.10
2019-01-10T09:38:33.774Z,2.07
2019-01-10T09:41:04.227Z,1.92
2019-01-10T09:43:34.509Z,2.02
2019-01-10T09:46:04.864Z,2.01
2019-01-10T09:48:35.403Z,2.01
2019-01-10T09:51:05.672Z,2.11
2019-01-10T09:53:35.977Z,2.20
2019-01-10T09:56:06.617Z,2.21
2019-01-10T09:58:36.797Z,2.23
2019-01-10T10:01:07.444Z,2.28
2019-01-10T10:03:37.688Z,2.25
2019-01-10T10:06:08.316Z,2.25
2019-01-10T10:08:38.624Z,1.98
2019-01-10T10:11:09.160Z,2.02
2019-01-10T10:13:39.305Z,2.07
2019-01-10T10:16:09.648Z,2.03
2019-01-10T10:18:40.222Z,2.00
2019-01-10T10:21:10.586Z,2.01
2019-01-10T10:23:40.836Z,2.03
2019-01-10T10:26:11.391Z,1.93
2019-01-10T10:28:41.484Z,1.92
2019-01-10T10:31:11.801Z,1.60
2019-01-10T10:33:42.228Z,1.69
2019-01-10T10:36:12.675Z,1.71
2019-01-10T10:38:43.295Z,1.58
2019-01-10T10:41:13.416Z,1.70
2019-01-10T10:43:44.893Z,1.67
2019-01-10T10:46:15.380Z,1.59
2019-01-10T10:48:45.602Z,1.55
2019-01-10T10:51:15.870Z,1.49
2019-01-10T10:53:46.428Z,1.63
2019-01-10T10:56:16.660Z,1.78
2019-01-10T10:58:47.110Z,1.48
2019-01-10T11:01:17.404Z,1.48
2019-01-10T11:03:47.668Z,1.54
2019-01-10T11:06:17.678Z,1.55
2019-01-10T11:08:47.820Z,1.37
2019-01-10T11:11:18.385Z,1.42
2019-01-10T11:13:50.949Z,1.42
2019-01-10T11:16:21.332Z,1.50
2019-01-10T11:18:51.582Z,1.59
2019-01-10T11:21:21.904Z,1.70
2019-01-10T11:23:52.469Z,1.65
2019-01-10T11:26:22.612Z,1.62
2019-01-10T11:28:52.929Z,1.59
2019-01-10T11:31:23.434Z,1.62
2019-01-10T11:33:54.078Z,1.50
2019-01-10T11:36:24.383Z,1.50
2019-01-10T11:38:54.610Z,1.47
2019-01-10T11:41:26.973Z,1.59
2019-01-10T11:43:57.388Z,1.58
2019-01-10T11:46:27.603Z,1.60
2019-01-10T11:48:57.771Z,1.69
2019-01-10T11:51:28.291Z,1.72
2019-01-10T11:53:58.472Z,1.59
2019-01-10T11:56:28.717Z,1.64
2019-01-10T11:58:59.219Z,1.73
2019-01-10T12:01:29.781Z,1.65
2019-01-10T12:04:00.307Z,1.54
2019-01-10T12:06:30.779Z,1.61
2019-01-10T12:09:01.128Z,1.57
2019-01-10T12:11:32.516Z,1.57
2019-01-10T12:14:02.873Z,1.60
2019-01-10T12:16:33.456Z,1.59
2019-01-10T12:19:03.599Z,1.58
2019-01-10T12:21:33.844Z,1.61
2019-01-10T12:24:04.393Z,1.61
2019-01-10T12:26:34.715Z,1.61
2019-01-10T12:29:05.985Z,1.70
2019-01-10T12:31:36.551Z,1.68
2019-01-10T12:34:06.780Z,1.61
2019-01-10T12:36:37.246Z,1.65
2019-01-10T12:39:08.984Z,1.58
2019-01-10T12:41:39.476Z,1.52
2019-01-10T12:44:18.802Z,1.42
2019-01-10T12:46:49.332Z,1.32
2019-01-10T12:49:19.638Z,1.32
2019-01-10T12:51:50.229Z,1.36
2019-01-10T12:54:22.014Z,1.41
2019-01-10T12:56:52.293Z,1.50
2019-01-10T12:59:22.507Z,1.58
2019-01-10T13:01:52.674Z,1.53
2019-01-10T13:04:23.152Z,1.55
2019-01-10T13:06:53.380Z,1.60
2019-01-10T13:09:23.581Z,1.53
2019-01-10T13:11:54.049Z,1.58
2019-01-10T13:14:24.394Z,1.56
2019-01-10T13:16:54.555Z,1.44
2019-01-10T13:19:24.880Z,1.36
2019-01-10T13:21:55.338Z,1.36
2019-01-10T13:24:28.534Z,1.42
2019-01-10T13:26:58.764Z,1.32
2019-01-10T13:29:29.407Z,1.32
2019-01-10T13:32:00.847Z,1.32
2019-01-10T13:34:31.295Z,1.28
2019-01-10T13:37:01.616Z,1.35
2019-01-10T13:39:31.878Z,1.34
2019-01-10T13:42:02.311Z,1.27
2019-01-10T13:44:33.008Z,1.28
2019-01-10T13:47:03.577Z,1.25
2019-01-10T13:49:33.699Z,1.26
2019-01-10T13:52:04.024Z,1.28
2019-01-10T13:54:34.268Z,1.22
2019-01-10T13:57:04.751Z,1.20
2019-01-10T13:59:34.974Z,1.25
2019-01-10T14:02:05.366Z,1.25
2019-01-10T14:04:35.527Z,1.33
2019-01-10T14:07:06.223Z,1.29
2019-01-10T14:09:36.404Z,1.03
2019-01-10T14:12:06.666Z,1.17
2019-01-10T14:14:36.892Z,1.17
2019-01-10T14:17:10.290Z,1.22
2019-01-10T14:19:40.529Z,1.17
2019-01-10T14:22:11.233Z,1.20
2019-01-10T14:24:41.701Z,1.16
2019-01-10T14:27:12.666Z,1.19
2019-01-10T14:29:43.410Z,1.18
2019-01-10T14:32:13.699Z,1.13
2019-01-10T14:34:44.172Z,1.12
2019-01-10T14:37:14.777Z,1.12
2019-01-10T14:39:45.164Z,1.15
2019-01-10T14:42:15.682Z,1.11
2019-01-10T14:44:46.753Z,1.13
2019-01-10T14:47:17.477Z,1.10
2019-01-10T14:49:47.658Z,1.11
2019-01-10T14:52:18.325Z,1.12
2019-01-10T14:54:48.612Z,1.14
2019-01-10T14:57:18.738Z,1.10
2019-01-10T14:59:49.244Z,1.13
2019-01-10T15:02:19.640Z,1.13
2019-01-10T15:04:49.689Z,1.14
2019-01-10T15:07:20.214Z,1.18
2019-01-10T15:09:50.629Z,1.14
2019-01-10T15:12:20.790Z,1.14
2019-01-10T15:14:51.529Z,1.14
2019-01-10T15:17:21.944Z,1.17
2019-01-10T15:19:53.674Z,1.16
2019-01-10T15:22:24.220Z,1.14
2019-01-10T15:24:54.304Z,1.12
2019-01-10T15:27:24.515Z,1.14
2019-01-10T15:29:54.754Z,1.19
2019-01-10T15:32:25.419Z,1.15
2019-01-10T15:34:55.676Z,1.11
2019-01-10T15:37:26.182Z,1.13
2019-01-10T15:39:57.578Z,1.02
2019-01-10T15:42:27.858Z,1.02
2019-01-10T15:44:58.548Z,0.98
2019-01-10T15:47:28.840Z,0.94
2019-01-10T15:50:01.420Z,0.94
2019-01-10T15:52:31.922Z,0.94
2019-01-10T15:55:02.458Z,0.88
2019-01-10T15:57:32.572Z,0.85
2019-01-10T16:00:02.940Z,0.85
2019-01-10T16:02:33.324Z,0.87
2019-01-10T16:05:03.553Z,0.91
2019-01-10T16:07:34.007Z,0.84
2019-01-10T16:10:05.454Z,0.84
2019-01-10T16:12:35.681Z,0.85
2019-01-10T16:15:07.747Z,0.86
2019-01-10T16:17:38.263Z,0.82
2019-01-10T16:20:10.085Z,0.86
2019-01-10T16:22:40.591Z,0.86
2019-01-10T16:25:11.906Z,0.86
2019-01-10T16:27:42.491Z,0.83
2019-01-10T16:30:21.254Z,0.88
2019-01-10T16:32:51.394Z,0.84
2019-01-10T16:35:21.634Z,0.82
2019-01-10T16:37:52.063Z,0.79
2019-01-10T16:40:22.530Z,0.84
2019-01-10T16:42:53.551Z,0.84
2019-01-10T16:45:25.958Z,0.81
2019-01-10T16:47:56.574Z,0.81
2019-01-10T16:50:26.883Z,0.79
2019-01-10T16:52:57.475Z,0.79
2019-01-10T16:55:27.642Z,0.78
2019-01-10T16:57:58.216Z,0.76
2019-01-10T17:00:33.495Z,0.75
2019-01-10T17:03:03.911Z,0.74
2019-01-10T17:05:34.395Z,0.74
2019-01-10T17:08:05.299Z,0.75
2019-01-10T17:10:35.422Z,0.75
2019-01-10T17:13:05.649Z,0.73
2019-01-10T17:15:35.842Z,0.78
2019-01-10T17:18:06.350Z,0.75
2019-01-10T17:20:36.532Z,0.78
2019-01-10T17:23:08.989Z,0.78
2019-01-10T17:25:40.695Z,0.78
2019-01-10T17:28:11.142Z,0.73
2019-01-10T17:30:41.405Z,0.82
2019-01-10T17:33:11.656Z,0.73
2019-01-10T17:35:42.236Z,0.76
2019-01-10T17:38:12.693Z,0.80
2019-01-10T17:40:43.212Z,0.77
2019-01-10T17:43:14.794Z,0.79
2019-01-10T17:45:45.431Z,0.83
2019-01-10T17:48:15.594Z,0.90
2019-01-10T17:50:45.648Z,0.91
2019-01-10T17:53:16.309Z,0.96
2019-01-10T17:55:46.404Z,0.86
2019-01-10T17:58:16.506Z,0.79
2019-01-10T18:00:46.914Z,0.81
2019-01-10T18:03:17.367Z,0.81
2019-01-10T18:05:47.596Z,0.88
2019-01-10T18:08:17.954Z,0.91
2019-01-10T18:10:48.152Z,0.86
2019-01-10T18:13:18.228Z,0.79
2019-01-10T18:15:48.535Z,0.78
2019-01-10T18:18:19.727Z,0.80
2019-01-10T18:20:50.256Z,0.79
2019-01-10T18:23:20.403Z,0.87
2019-01-10T18:25:50.442Z,0.89
2019-01-10T18:28:20.576Z,0.83
2019-01-10T18:30:50.778Z,0.84
2019-01-10T18:33:21.341Z,0.78
2019-01-10T18:35:52.683Z,0.78
2019-01-10T18:38:23.292Z,0.87
2019-01-10T18:40:53.486Z,0.94
2019-01-10T18:43:23.518Z,0.83
2019-01-10T18:45:53.662Z,0.81
2019-01-10T18:48:23.829Z,0.86
2019-01-10T18:50:54.194Z,0.83
2019-01-10T18:53:25.264Z,0.88
2019-01-10T18:55:55.454Z,0.78
2019-01-10T18:58:25.827Z,0.87
2019-01-10T19:00:57.233Z,0.79
2019-01-10T19:03:27.629Z,0.76
2019-01-10T19:05:57.798Z,0.74
2019-01-10T19:08:28.485Z,0.77
2019-01-10T19:10:58.748Z,0.75
2019-01-10T19:13:29.112Z,0.81
2019-01-10T19:15:59.416Z,0.90
2019-01-10T19:18:29.612Z,0.83
2019-01-10T19:21:00.117Z,0.75
2019-01-10T19:23:30.823Z,0.82
2019-01-10T19:26:02.276Z,0.84
2019-01-10T19:28:32.759Z,0.92
2019-01-10T19:31:04.663Z,0.95
2019-01-10T19:33:35.138Z,0.89
2019-01-10T19:36:05.730Z,0.83
2019-01-10T19:38:36.287Z,0.91
2019-01-10T19:41:06.682Z,0.92
2019-01-10T19:43:37.098Z,0.87
2019-01-10T19:46:07.747Z,0.82
2019-01-10T19:48:38.095Z,0.88
2019-01-10T19:51:08.740Z,0.97
2019-01-10T19:53:39.214Z,1.01
2019-01-10T19:56:09.517Z,1.01
2019-01-10T19:58:45.339Z,1.07
2019-01-10T20:01:15.818Z,1.13
2019-01-10T20:03:46.353Z,1.19
2019-01-10T20:06:16.606Z,1.22
2019-01-10T20:08:46.952Z,1.19
2019-01-10T20:11:17.569Z,1.13
2019-01-10T20:13:47.824Z,1.13
2019-01-10T20:16:18.581Z,1.17
2019-01-10T20:18:48.764Z,1.23
2019-01-10T20:21:19.317Z,1.23
2019-01-10T20:23:49.706Z,1.29
2019-01-10T20:26:20.759Z,1.33
2019-01-10T20:28:51.437Z,1.37
2019-01-10T20:31:21.826Z,1.34
2019-01-10T20:33:52.298Z,1.38
2019-01-10T20:36:22.434Z,1.40
2019-01-10T20:38:52.952Z,1.44
2019-01-10T20:41:23.417Z,1.48
2019-01-10T20:43:53.691Z,1.51
2019-01-10T20:46:23.998Z,1.52
2019-01-10T20:48:54.767Z,1.51
2019-01-10T20:51:25.251Z,1.47
2019-01-10T20:53:55.458Z,1.47
2019-01-10T20:56:25.663Z,1.45
2019-01-10T20:58:56.092Z,1.44
2019-01-10T21:01:26.982Z,1.48
2019-01-10T21:03:57.449Z,1.45
2019-01-10T21:06:27.823Z,1.44
2019-01-10T21:08:58.523Z,1.45
2019-01-10T21:11:28.657Z,2.07
2019-01-10T21:13:58.839Z,3.57
2019-01-10T21:16:29.514Z,4.70
2019-01-10T21:18:59.653Z,5.35
2019-01-10T21:21:30.139Z,4.68
2019-01-10T21:24:01.980Z,3.47
2019-01-10T21:26:32.515Z,3.23
2019-01-10T21:29:02.934Z,3.10
2019-01-10T21:31:35.062Z,2.84
2019-01-10T21:34:05.995Z,2.37
2019-01-10T21:36:36.592Z,2.38
2019-01-10T21:39:08.258Z,2.20
2019-01-10T21:41:38.854Z,1.95
2019-01-10T21:44:09.747Z,1.97
2019-01-10T21:46:40.497Z,1.74
2019-01-10T21:49:11.126Z,1.74
2019-01-10T21:51:42.062Z,1.66
2019-01-10T21:54:12.819Z,1.67
2019-01-10T21:56:44.832Z,1.53
2019-01-10T21:59:15.914Z,1.52
2019-01-10T22:01:46.747Z,1.53
2019-01-10T22:04:17.912Z,1.58
2019-01-10T22:06:48.380Z,1.58
2019-01-10T22:09:18.757Z,1.50
2019-01-10T22:11:49.319Z,1.41
2019-01-10T22:14:19.787Z,1.19
2019-01-10T22:16:50.522Z,1.28
2019-01-10T22:19:21.160Z,1.27
2019-01-10T22:21:51.898Z,1.29
2019-01-10T22:24:22.715Z,1.18
2019-01-10T22:26:53.209Z,1.15
2019-01-10T22:29:23.522Z,1.17
2019-01-10T22:31:53.720Z,1.04
2019-01-10T22:34:23.883Z,1.00
2019-01-10T22:36:54.403Z,1.02
2019-01-10T22:39:24.920Z,0.92
2019-01-10T22:41:56.141Z,0.86
2019-01-10T22:44:26.520Z,1.00
2019-01-10T22:46:56.794Z,1.06
2019-01-10T22:49:27.530Z,1.09
2019-01-10T22:51:57.735Z,1.16
2019-01-10T22:54:28.321Z,1.15
2019-01-10T22:56:58.914Z,1.09
2019-01-10T22:59:29.890Z,1.07
2019-01-10T23:02:00.919Z,1.08
2019-01-10T23:04:37.728Z,0.99
2019-01-10T23:07:21.161Z,1.00
2019-01-10T23:09:51.657Z,1.06
2019-01-10T23:12:22.885Z,1.08
2019-01-10T23:14:53.565Z,1.06
2019-01-10T23:17:25.575Z,1.01
2019-01-10T23:19:56.365Z,1.01
2019-01-10T23:22:26.731Z,1.06
2019-01-10T23:24:58.806Z,1.10
2019-01-10T23:27:29.502Z,1.12
2019-01-10T23:29:59.988Z,1.15
2019-01-10T23:32:30.466Z,1.11
2019-01-10T23:35:00.910Z,1.09
2019-01-10T23:37:31.525Z,1.05
2019-01-10T23:40:02.111Z,0.96
2019-01-10T23:42:32.772Z,0.96
2019-01-10T23:45:03.641Z,0.86
2019-01-10T23:47:34.107Z,0.89
2019-01-10T23:50:05.118Z,0.80
2019-01-10T23:52:36.035Z,0.76
2019-01-10T23:55:06.763Z,0.71
2019-01-10T23:57:37.489Z,0.72
